Passadumkeag, ME

10:10 AM EDT on July 24, 2014 (GMT -0400)
RAWS SUNKHAZE MEADOWS ME US (MSHZM1) Elev 49 ft | 44.95 °N, 68.61 °W | Change Station

Current weather conditions updated 39 minutes ago

Mostly Cloudy
Mostly Cloudy
63 °F
Feels Like 63 °F
N
5
Wind Variable Wind from NNE
Gusts 13.0 mph

Today is forecast to be Much Cooler than yesterday.

Today
High -- | Low -- °F
--% Chance of Precip.
Yesterday
High -- | Low -- °F
Precip. -- in
5:10 AM 8:10 PM
Waning Crescent, 5% visible
Pressure 29.83 in
Visibility 10.0 miles
Clouds Mostly Cloudy 8500 ft
Mostly Cloudy 15000 ft
Dew Point 55 °F
Humidity 74%
Rainfall 0.96 in
Snow Depth Not available.
UV 4 out of 12
Pollen 1.70 out of 12
Air Quality Not available.
Flu Activity Not available.
METAR KBGR 241353Z 03015KT 10SM BKN085 BKN150 18/11 A2984 RMK AO2 SLP102 T01830106

More Conditions Fewer Conditions

Pressure 29.83 in
Visibility 10.0 miles
Clouds Mostly Cloudy 8500 ft
Mostly Cloudy 15000 ft
Dew Point 55 °F
Humidity 74%
Rainfall 0.96 in
Snow Depth Not available.
UV 4 out of 12
Pollen 1.70 out of 12
Air Quality Not available.
Flu Activity Not available.
METAR KBGR 241353Z 03015KT 10SM BKN085 BKN150 18/11 A2984 RMK AO2 SLP102 T01830106

More Conditions Fewer Conditions

10-Day Weather Forecast

Almanac

Astronomy

Jul. 24, 2014 Rise Set
Actual Time 5:10 AM EDT 8:10 PM EDT
Civil Twilight 4:35 AM EDT 8:45 PM EDT
Nautical Twilight 3:50 AM EDT 9:30 PM EDT
Astronomical Twilight 2:56 AM EDT 10:23 PM EDT
Moon 3:16 AM EDT 6:21 PM EDT
Length of Visible Light 16h 10m
Length of Day
15h 00m
Tomorrow will be 2m 9s shorter.
Waning Crescent, 5% of the Moon is Illuminated
Today
Waning Crescent
Jul 26
New
Aug 3
First Quarter
Aug 10
Full
Aug 17
Last Quarter

Today's Extremes

State Highs State Lows

Community

WunderPhotos

Upload Photos

1,737,011 photos uploaded!

Nearby

Air Quality

  Air Quality AQ Index Pollutant
Thursday Good
OZONE
Thursday Good
PM2.5
Friday Good
OZONE
Friday Good
PM2.5
Saturday Good
OZONE
Saturday Good
PM2.5

Snow Depth

Station Depth Elevation
No new snow has been reported.

Earthquake Activity

City Distance Mag. Time & Date
No recent earthquake activity has been reported nearby.
Minimum magnitude displayed is 2.5.

Coastal Water Temperatures

Place Temperature
No Stations Reporting

Nearby Weather Stations

Station Location Temp. Dew Point Humidity Wind Precip. Elev Updated Type
RAWS SUNKHAZE MEADOWS ME, Milford, ME 63 °F 55 °F 74% NNE  at  5 mph 0.00 in / hr 49 ft 9:31 AM EDT MADIS
Libbey Lane, Glenburn, ME 66.0 °F 58 °F 76% North  at  2.2 mph - / hr 194 ft 10:08 AM EDT Normal

Show More Stations Show Fewer Stations